Terminal Aerodrome Forecast
Issued by NWS Midland/Odessa, TX

Home | Current Version | Previous Version | Text Only | Print | Product List | Glossary On
Versions: 1 2 3 4 5 6 7 8 9 10 11 12 13 14 15 16 17 18
438
FTUS44 KMAF 201321 AAB
TAFMAF
TAF AMD
KMAF 201321Z 2013/2112 15006KT P6SM SCT100
     FM201600 17014G20KT P6SM SCT200
     FM210600 18012KT P6SM BKN020=

USA.gov is the U.S. government's official web portal to all federal, state and local government web resources and services.